Aireys Inlet, Australia

6:20 AM AEDT on February 24, 2017 (GMT +1100)
Gherang | | Change Station

Elev 554 ft 38.32 °S, 144.08 °E | Updated 4 minutes ago

Overcast
Overcast
53.7 °F
Feels Like 53.7 °F
N
0.0
Wind Variable Wind from South
Gusts 0.0 mph

Today
High -- | Low -- °F
--% Chance of Precip.
Yesterday
High -- | Low -- °F
Precip. -- in
Pressure 30.21 in
Visibility 6.2 miles
Clouds Overcast 4300 ft
Dew Point 52 °F
Humidity 94%
Rainfall 0.00 in
Snow Depth Not available.
7:01 AM 8:11 PM
Waning Crescent, 9% visible
METAR YMAV 231900Z AUTO 23006KT 9999 // OVC043 15/12 Q1023
Pressure 30.21 in
Visibility 6.2 miles
Clouds Overcast 4300 ft
Dew Point 52 °F
Humidity 94%
Rainfall 0.00 in
Snow Depth Not available.
7:01 AM 8:11 PM
Waning Crescent, 9% visible
METAR YMAV 231900Z AUTO 23006KT 9999 // OVC043 15/12 Q1023

Get Your Daily Forecast Email!

Thanks for signing up!

Be on the lookout for a verification email in your inbox.

You'll start receiving the daily forecast at 8 AM.

×

10-Day Weather Forecast

×

Almanac

Astronomy

Feb. 24, 2017 Rise Set
Actual Time
Civil Twilight
Nautical Twilight
Astronomical Twilight
Moon
Length of Visible Light
Length of Day
Tomorrow will be .
, % of the Moon is Illuminated

Today's Extremes

Country Highs Country Lows

Community

WunderPhotos

Upload Photos

1,962,540 photos uploaded!

WunderBlog® & News

Nearby

Air Quality

  Air Quality AQ Index Pollutant
Not available.

Snow Depth

Station Depth Elevation

Earthquake Activity

City Distance Mag. Time & Date
Minimum magnitude displayed is 2.5.

Coastal Water Temperatures

Place Temperature

Stations

Nearby Weather Stations

Station Location Temp. Windchill Dew Point Humidity Wind Precip. Elev Updated Type